sensor_id;sensor_type;location;lat;lon;timestamp;P1;durP1;ratioP1;P2;durP2;ratioP2
77788;SDS011;66980;44.384;0.512;2023-03-23T00:01:07;3.97;;;3.10;;
77788;SDS011;66980;44.384;0.512;2023-03-23T00:03:38;4.50;;;2.88;;
77788;SDS011;66980;44.384;0.512;2023-03-23T00:06:04;3.80;;;3.28;;
77788;SDS011;66980;44.384;0.512;2023-03-23T00:08:32;3.47;;;2.65;;
77788;SDS011;66980;44.384;0.512;2023-03-23T00:11:03;3.30;;;3.00;;
77788;SDS011;66980;44.384;0.512;2023-03-23T00:13:29;3.42;;;3.10;;
77788;SDS011;66980;44.384;0.512;2023-03-23T00:15:55;3.33;;;2.75;;
77788;SDS011;66980;44.384;0.512;2023-03-23T00:18:22;4.28;;;3.13;;
77788;SDS011;66980;44.384;0.512;2023-03-23T00:20:49;3.53;;;2.78;;
77788;SDS011;66980;44.384;0.512;2023-03-23T00:23:20;5.70;;;3.20;;
77788;SDS011;66980;44.384;0.512;2023-03-23T00:25:53;4.93;;;2.63;;
77788;SDS011;66980;44.384;0.512;2023-03-23T00:28:24;4.43;;;3.60;;
77788;SDS011;66980;44.384;0.512;2023-03-23T00:31:09;4.57;;;2.75;;
77788;SDS011;66980;44.384;0.512;2023-03-23T00:33:36;2.83;;;2.63;;
77788;SDS011;66980;44.384;0.512;2023-03-23T00:36:08;3.53;;;2.78;;
77788;SDS011;66980;44.384;0.512;2023-03-23T00:38:35;6.05;;;3.65;;
77788;SDS011;66980;44.384;0.512;2023-03-23T00:41:02;3.88;;;3.00;;
77788;SDS011;66980;44.384;0.512;2023-03-23T00:43:27;3.10;;;2.80;;
77788;SDS011;66980;44.384;0.512;2023-03-23T00:45:54;4.82;;;2.90;;
77788;SDS011;66980;44.384;0.512;2023-03-23T00:48:20;3.35;;;2.90;;
77788;SDS011;66980;44.384;0.512;2023-03-23T00:50:47;4.28;;;2.70;;
77788;SDS011;66980;44.384;0.512;2023-03-23T00:53:13;3.42;;;3.00;;
77788;SDS011;66980;44.384;0.512;2023-03-23T00:55:43;3.78;;;2.53;;
77788;SDS011;66980;44.384;0.512;2023-03-23T00:58:09;3.03;;;2.72;;
77788;SDS011;66980;44.384;0.512;2023-03-23T01:00:35;4.18;;;3.13;;
77788;SDS011;66980;44.384;0.512;2023-03-23T01:03:02;5.10;;;3.15;;
77788;SDS011;66980;44.384;0.512;2023-03-23T01:05:27;4.50;;;2.45;;
77788;SDS011;66980;44.384;0.512;2023-03-23T01:07:57;2.70;;;2.42;;
77788;SDS011;66980;44.384;0.512;2023-03-23T01:10:25;3.13;;;2.63;;
77788;SDS011;66980;44.384;0.512;2023-03-23T01:12:57;2.88;;;2.50;;
77788;SDS011;66980;44.384;0.512;2023-03-23T01:15:25;4.05;;;2.90;;
77788;SDS011;66980;44.384;0.512;2023-03-23T01:17:51;4.25;;;3.05;;
77788;SDS011;66980;44.384;0.512;2023-03-23T01:20:16;4.57;;;3.00;;
77788;SDS011;66980;44.384;0.512;2023-03-23T01:22:42;4.63;;;2.97;;
77788;SDS011;66980;44.384;0.512;2023-03-23T01:25:08;3.70;;;3.35;;
77788;SDS011;66980;44.384;0.512;2023-03-23T01:27:36;3.20;;;2.85;;
77788;SDS011;66980;44.384;0.512;2023-03-23T01:30:02;2.88;;;2.55;;
77788;SDS011;66980;44.384;0.512;2023-03-23T01:32:28;4.80;;;3.33;;
77788;SDS011;66980;44.384;0.512;2023-03-23T01:34:54;2.55;;;2.35;;
77788;SDS011;66980;44.384;0.512;2023-03-23T01:37:20;3.47;;;2.65;;
77788;SDS011;66980;44.384;0.512;2023-03-23T01:39:51;3.50;;;2.92;;
77788;SDS011;66980;44.384;0.512;2023-03-23T01:42:23;3.58;;;3.10;;
77788;SDS011;66980;44.384;0.512;2023-03-23T01:47:15;3.00;;;2.80;;
77788;SDS011;66980;44.384;0.512;2023-03-23T01:49:46;4.22;;;2.97;;
77788;SDS011;66980;44.384;0.512;2023-03-23T01:52:14;3.38;;;2.67;;
77788;SDS011;66980;44.384;0.512;2023-03-23T01:54:43;4.80;;;2.60;;
77788;SDS011;66980;44.384;0.512;2023-03-23T01:57:14;3.03;;;2.70;;
77788;SDS011;66980;44.384;0.512;2023-03-23T01:59:46;5.50;;;2.53;;
77788;SDS011;66980;44.384;0.512;2023-03-23T02:02:15;2.88;;;2.60;;
77788;SDS011;66980;44.384;0.512;2023-03-23T02:04:41;2.95;;;2.65;;
77788;SDS011;66980;44.384;0.512;2023-03-23T02:07:08;3.25;;;2.28;;
77788;SDS011;66980;44.384;0.512;2023-03-23T02:09:34;3.13;;;2.58;;
77788;SDS011;66980;44.384;0.512;2023-03-23T02:12:00;3.25;;;2.70;;
77788;SDS011;66980;44.384;0.512;2023-03-23T02:14:26;3.05;;;2.78;;
77788;SDS011;66980;44.384;0.512;2023-03-23T02:33:56;4.07;;;3.22;;
77788;SDS011;66980;44.384;0.512;2023-03-23T02:39:33;2.72;;;2.53;;
77788;SDS011;66980;44.384;0.512;2023-03-23T02:42:07;3.67;;;2.47;;
77788;SDS011;66980;44.384;0.512;2023-03-23T02:44:34;3.45;;;2.58;;
77788;SDS011;66980;44.384;0.512;2023-03-23T02:47:03;2.65;;;2.13;;
77788;SDS011;66980;44.384;0.512;2023-03-23T02:49:31;2.63;;;2.30;;
77788;SDS011;66980;44.384;0.512;2023-03-23T02:51:59;3.25;;;2.58;;
77788;SDS011;66980;44.384;0.512;2023-03-23T02:54:27;3.83;;;2.47;;
77788;SDS011;66980;44.384;0.512;2023-03-23T02:56:54;2.42;;;2.20;;
77788;SDS011;66980;44.384;0.512;2023-03-23T02:59:22;2.95;;;2.28;;
77788;SDS011;66980;44.384;0.512;2023-03-23T03:02:07;3.72;;;2.28;;
77788;SDS011;66980;44.384;0.512;2023-03-23T03:04:38;2.80;;;2.60;;
77788;SDS011;66980;44.384;0.512;2023-03-23T03:10:04;2.65;;;2.30;;
77788;SDS011;66980;44.384;0.512;2023-03-23T03:15:32;3.08;;;2.13;;
77788;SDS011;66980;44.384;0.512;2023-03-23T03:20:30;2.28;;;2.08;;
77788;SDS011;66980;44.384;0.512;2023-03-23T03:22:57;2.20;;;2.00;;
77788;SDS011;66980;44.384;0.512;2023-03-23T03:25:25;2.67;;;2.47;;
77788;SDS011;66980;44.384;0.512;2023-03-23T03:27:54;2.63;;;2.42;;
77788;SDS011;66980;44.384;0.512;2023-03-23T03:30:22;3.55;;;2.58;;
77788;SDS011;66980;44.384;0.512;2023-03-23T03:32:53;4.13;;;1.77;;
77788;SDS011;66980;44.384;0.512;2023-03-23T03:35:22;2.92;;;2.03;;
77788;SDS011;66980;44.384;0.512;2023-03-23T03:37:49;2.63;;;2.22;;
77788;SDS011;66980;44.384;0.512;2023-03-23T03:40:17;2.63;;;2.03;;
77788;SDS011;66980;44.384;0.512;2023-03-23T03:42:44;3.88;;;2.28;;
77788;SDS011;66980;44.384;0.512;2023-03-23T03:45:12;2.60;;;2.40;;
77788;SDS011;66980;44.384;0.512;2023-03-23T03:47:43;2.35;;;2.15;;
77788;SDS011;66980;44.384;0.512;2023-03-23T03:50:09;2.20;;;2.10;;
77788;SDS011;66980;44.384;0.512;2023-03-23T03:52:35;1.98;;;1.30;;
77788;SDS011;66980;44.384;0.512;2023-03-23T03:55:01;2.47;;;1.92;;
77788;SDS011;66980;44.384;0.512;2023-03-23T03:57:27;3.55;;;2.17;;
77788;SDS011;66980;44.384;0.512;2023-03-23T03:59:52;2.05;;;1.63;;
77788;SDS011;66980;44.384;0.512;2023-03-23T04:02:18;1.88;;;1.77;;
77788;SDS011;66980;44.384;0.512;2023-03-23T04:04:48;2.65;;;2.45;;
77788;SDS011;66980;44.384;0.512;2023-03-23T04:07:14;2.30;;;2.03;;
77788;SDS011;66980;44.384;0.512;2023-03-23T04:09:41;2.38;;;1.92;;
77788;SDS011;66980;44.384;0.512;2023-03-23T04:12:08;2.50;;;2.20;;
77788;SDS011;66980;44.384;0.512;2023-03-23T04:14:34;4.40;;;2.20;;
77788;SDS011;66980;44.384;0.512;2023-03-23T04:16:59;1.88;;;1.65;;
77788;SDS011;66980;44.384;0.512;2023-03-23T04:19:25;1.90;;;1.33;;
77788;SDS011;66980;44.384;0.512;2023-03-23T04:21:53;3.65;;;2.10;;
77788;SDS011;66980;44.384;0.512;2023-03-23T04:24:23;2.28;;;2.10;;
77788;SDS011;66980;44.384;0.512;2023-03-23T04:26:49;3.80;;;1.95;;
77788;SDS011;66980;44.384;0.512;2023-03-23T04:29:17;2.33;;;2.03;;
77788;SDS011;66980;44.384;0.512;2023-03-23T04:31:43;1.90;;;1.70;;
77788;SDS011;66980;44.384;0.512;2023-03-23T04:34:10;2.10;;;1.52;;
77788;SDS011;66980;44.384;0.512;2023-03-23T04:36:38;2.03;;;1.77;;
77788;SDS011;66980;44.384;0.512;2023-03-23T04:39:05;2.40;;;1.55;;
77788;SDS011;66980;44.384;0.512;2023-03-23T04:41:34;2.17;;;1.98;;
77788;SDS011;66980;44.384;0.512;2023-03-23T04:44:03;1.63;;;1.20;;
77788;SDS011;66980;44.384;0.512;2023-03-23T04:46:30;2.22;;;1.90;;
77788;SDS011;66980;44.384;0.512;2023-03-23T04:48:56;2.22;;;1.77;;
77788;SDS011;66980;44.384;0.512;2023-03-23T04:53:51;2.08;;;1.58;;
77788;SDS011;66980;44.384;0.512;2023-03-23T04:56:17;1.92;;;1.83;;
77788;SDS011;66980;44.384;0.512;2023-03-23T04:58:43;2.35;;;1.63;;
77788;SDS011;66980;44.384;0.512;2023-03-23T05:01:10;2.17;;;1.98;;
77788;SDS011;66980;44.384;0.512;2023-03-23T05:03:38;2.30;;;2.10;;
77788;SDS011;66980;44.384;0.512;2023-03-23T05:06:04;1.70;;;1.55;;
77788;SDS011;66980;44.384;0.512;2023-03-23T05:08:31;2.38;;;2.08;;
77788;SDS011;66980;44.384;0.512;2023-03-23T05:10:57;1.88;;;1.77;;
77788;SDS011;66980;44.384;0.512;2023-03-23T05:15:51;2.05;;;1.85;;
77788;SDS011;66980;44.384;0.512;2023-03-23T05:18:17;1.92;;;1.63;;
77788;SDS011;66980;44.384;0.512;2023-03-23T05:20:42;2.78;;;1.65;;
77788;SDS011;66980;44.384;0.512;2023-03-23T05:23:08;2.00;;;1.65;;
77788;SDS011;66980;44.384;0.512;2023-03-23T05:25:35;1.60;;;1.50;;
77788;SDS011;66980;44.384;0.512;2023-03-23T05:28:05;1.88;;;1.58;;
77788;SDS011;66980;44.384;0.512;2023-03-23T05:30:32;2.63;;;1.67;;
77788;SDS011;66980;44.384;0.512;2023-03-23T05:32:58;2.47;;;2.00;;
77788;SDS011;66980;44.384;0.512;2023-03-23T05:35:25;1.95;;;1.60;;
77788;SDS011;66980;44.384;0.512;2023-03-23T05:37:50;1.88;;;1.52;;
77788;SDS011;66980;44.384;0.512;2023-03-23T05:42:43;1.52;;;1.42;;
77788;SDS011;66980;44.384;0.512;2023-03-23T05:45:10;1.90;;;1.60;;
77788;SDS011;66980;44.384;0.512;2023-03-23T05:47:37;1.52;;;1.42;;
77788;SDS011;66980;44.384;0.512;2023-03-23T05:50:05;1.42;;;1.20;;
77788;SDS011;66980;44.384;0.512;2023-03-23T05:52:32;2.13;;;1.35;;
77788;SDS011;66980;44.384;0.512;2023-03-23T05:55:00;2.22;;;2.03;;
77788;SDS011;66980;44.384;0.512;2023-03-23T05:57:26;2.47;;;1.63;;
77788;SDS011;66980;44.384;0.512;2023-03-23T05:59:53;1.13;;;0.90;;
77788;SDS011;66980;44.384;0.512;2023-03-23T06:02:18;3.25;;;1.60;;
77788;SDS011;66980;44.384;0.512;2023-03-23T06:04:44;1.52;;;1.42;;
77788;SDS011;66980;44.384;0.512;2023-03-23T06:07:10;2.85;;;1.30;;
77788;SDS011;66980;44.384;0.512;2023-03-23T06:09:38;2.00;;;1.30;;
77788;SDS011;66980;44.384;0.512;2023-03-23T06:12:05;1.70;;;1.35;;
77788;SDS011;66980;44.384;0.512;2023-03-23T06:14:31;1.48;;;1.38;;
77788;SDS011;66980;44.384;0.512;2023-03-23T06:16:57;1.95;;;1.80;;
77788;SDS011;66980;44.384;0.512;2023-03-23T06:19:22;1.35;;;1.20;;
77788;SDS011;66980;44.384;0.512;2023-03-23T06:21:48;1.10;;;1.10;;
77788;SDS011;66980;44.384;0.512;2023-03-23T06:24:14;2.60;;;1.30;;
77788;SDS011;66980;44.384;0.512;2023-03-23T06:26:40;1.83;;;1.30;;
77788;SDS011;66980;44.384;0.512;2023-03-23T06:29:09;1.50;;;1.40;;
77788;SDS011;66980;44.384;0.512;2023-03-23T06:31:40;2.63;;;1.50;;
77788;SDS011;66980;44.384;0.512;2023-03-23T06:34:10;2.17;;;1.30;;
77788;SDS011;66980;44.384;0.512;2023-03-23T06:36:36;1.38;;;1.27;;
77788;SDS011;66980;44.384;0.512;2023-03-23T06:39:03;1.30;;;1.20;;
77788;SDS011;66980;44.384;0.512;2023-03-23T06:41:30;2.38;;;1.42;;
77788;SDS011;66980;44.384;0.512;2023-03-23T06:43:57;1.55;;;1.40;;
77788;SDS011;66980;44.384;0.512;2023-03-23T06:46:23;2.10;;;1.30;;
77788;SDS011;66980;44.384;0.512;2023-03-23T06:48:48;6.43;;;1.67;;
77788;SDS011;66980;44.384;0.512;2023-03-23T06:51:17;1.98;;;1.65;;
77788;SDS011;66980;44.384;0.512;2023-03-23T06:53:43;2.80;;;1.90;;
77788;SDS011;66980;44.384;0.512;2023-03-23T06:56:09;1.80;;;1.40;;
77788;SDS011;66980;44.384;0.512;2023-03-23T06:58:34;3.30;;;1.75;;
77788;SDS011;66980;44.384;0.512;2023-03-23T07:01:00;2.70;;;1.23;;
77788;SDS011;66980;44.384;0.512;2023-03-23T07:03:26;3.10;;;1.50;;
77788;SDS011;66980;44.384;0.512;2023-03-23T07:05:52;1.50;;;1.40;;
77788;SDS011;66980;44.384;0.512;2023-03-23T07:08:19;2.00;;;1.67;;
77788;SDS011;66980;44.384;0.512;2023-03-23T07:10:45;3.75;;;1.65;;
77788;SDS011;66980;44.384;0.512;2023-03-23T07:13:11;5.43;;;1.65;;
77788;SDS011;66980;44.384;0.512;2023-03-23T07:15:38;4.00;;;1.45;;
77788;SDS011;66980;44.384;0.512;2023-03-23T07:18:04;2.83;;;1.85;;
77788;SDS011;66980;44.384;0.512;2023-03-23T07:20:30;4.50;;;2.10;;
77788;SDS011;66980;44.384;0.512;2023-03-23T07:22:55;1.73;;;1.10;;
77788;SDS011;66980;44.384;0.512;2023-03-23T07:25:21;2.50;;;1.27;;
77788;SDS011;66980;44.384;0.512;2023-03-23T07:27:46;3.42;;;1.88;;
77788;SDS011;66980;44.384;0.512;2023-03-23T07:30:12;4.85;;;2.45;;
77788;SDS011;66980;44.384;0.512;2023-03-23T07:32:39;3.75;;;1.83;;
77788;SDS011;66980;44.384;0.512;2023-03-23T07:35:06;4.00;;;2.42;;
77788;SDS011;66980;44.384;0.512;2023-03-23T07:37:33;3.10;;;2.75;;
77788;SDS011;66980;44.384;0.512;2023-03-23T07:39:59;2.95;;;2.47;;
77788;SDS011;66980;44.384;0.512;2023-03-23T07:42:24;5.03;;;2.67;;
77788;SDS011;66980;44.384;0.512;2023-03-23T07:44:50;6.10;;;3.83;;
77788;SDS011;66980;44.384;0.512;2023-03-23T07:47:15;7.07;;;2.90;;
77788;SDS011;66980;44.384;0.512;2023-03-23T07:49:42;4.45;;;3.15;;
77788;SDS011;66980;44.384;0.512;2023-03-23T07:52:08;6.72;;;2.88;;
77788;SDS011;66980;44.384;0.512;2023-03-23T07:54:35;5.28;;;3.25;;
77788;SDS011;66980;44.384;0.512;2023-03-23T07:57:01;5.80;;;3.30;;
77788;SDS011;66980;44.384;0.512;2023-03-23T07:59:27;5.63;;;3.08;;
77788;SDS011;66980;44.384;0.512;2023-03-23T08:01:52;8.85;;;3.30;;
77788;SDS011;66980;44.384;0.512;2023-03-23T08:04:18;4.90;;;3.03;;
77788;SDS011;66980;44.384;0.512;2023-03-23T08:06:43;10.02;;;3.13;;
77788;SDS011;66980;44.384;0.512;2023-03-23T08:09:09;6.97;;;2.95;;
77788;SDS011;66980;44.384;0.512;2023-03-23T08:11:35;5.90;;;3.35;;
77788;SDS011;66980;44.384;0.512;2023-03-23T08:14:01;7.88;;;2.55;;
77788;SDS011;66980;44.384;0.512;2023-03-23T08:16:28;5.55;;;2.80;;
77788;SDS011;66980;44.384;0.512;2023-03-23T08:18:53;3.88;;;2.85;;
77788;SDS011;66980;44.384;0.512;2023-03-23T08:21:19;5.80;;;3.15;;
77788;SDS011;66980;44.384;0.512;2023-03-23T08:23:45;3.58;;;2.42;;
77788;SDS011;66980;44.384;0.512;2023-03-23T08:26:11;5.03;;;2.70;;
77788;SDS011;66980;44.384;0.512;2023-03-23T08:28:37;4.60;;;2.33;;
77788;SDS011;66980;44.384;0.512;2023-03-23T08:31:10;4.90;;;3.35;;
77788;SDS011;66980;44.384;0.512;2023-03-23T08:33:38;3.03;;;2.13;;
77788;SDS011;66980;44.384;0.512;2023-03-23T08:36:04;7.50;;;3.08;;
77788;SDS011;66980;44.384;0.512;2023-03-23T08:38:31;4.90;;;3.22;;
77788;SDS011;66980;44.384;0.512;2023-03-23T08:40:58;3.50;;;2.30;;
77788;SDS011;66980;44.384;0.512;2023-03-23T08:43:24;6.00;;;2.50;;
77788;SDS011;66980;44.384;0.512;2023-03-23T08:45:50;3.67;;;2.25;;
77788;SDS011;66980;44.384;0.512;2023-03-23T08:48:16;3.45;;;2.05;;
77788;SDS011;66980;44.384;0.512;2023-03-23T08:50:43;4.13;;;1.98;;
77788;SDS011;66980;44.384;0.512;2023-03-23T08:53:09;3.20;;;1.90;;
77788;SDS011;66980;44.384;0.512;2023-03-23T08:55:34;2.45;;;2.22;;
77788;SDS011;66980;44.384;0.512;2023-03-23T08:58:00;3.42;;;1.90;;
77788;SDS011;66980;44.384;0.512;2023-03-23T09:00:26;2.67;;;2.22;;
77788;SDS011;66980;44.384;0.512;2023-03-23T09:02:53;2.60;;;2.33;;
77788;SDS011;66980;44.384;0.512;2023-03-23T09:05:21;2.65;;;1.77;;
77788;SDS011;66980;44.384;0.512;2023-03-23T09:07:51;3.53;;;2.78;;
77788;SDS011;66980;44.384;0.512;2023-03-23T09:10:18;2.88;;;2.20;;
77788;SDS011;66980;44.384;0.512;2023-03-23T09:12:45;6.93;;;2.63;;
77788;SDS011;66980;44.384;0.512;2023-03-23T09:15:13;6.03;;;2.47;;
77788;SDS011;66980;44.384;0.512;2023-03-23T09:17:49;3.75;;;2.20;;
77788;SDS011;66980;44.384;0.512;2023-03-23T09:20:17;2.10;;;1.75;;
77788;SDS011;66980;44.384;0.512;2023-03-23T09:22:46;3.47;;;1.83;;
77788;SDS011;66980;44.384;0.512;2023-03-23T09:25:15;4.68;;;2.53;;
77788;SDS011;66980;44.384;0.512;2023-03-23T09:27:46;4.50;;;1.85;;
77788;SDS011;66980;44.384;0.512;2023-03-23T09:30:16;5.47;;;2.30;;
77788;SDS011;66980;44.384;0.512;2023-03-23T09:35:09;3.47;;;2.30;;
77788;SDS011;66980;44.384;0.512;2023-03-23T09:37:37;2.22;;;1.95;;
77788;SDS011;66980;44.384;0.512;2023-03-23T09:40:04;2.17;;;1.45;;
77788;SDS011;66980;44.384;0.512;2023-03-23T09:45:16;2.30;;;2.10;;
77788;SDS011;66980;44.384;0.512;2023-03-23T09:47:48;2.40;;;2.20;;
77788;SDS011;66980;44.384;0.512;2023-03-23T09:50:34;2.95;;;1.85;;
77788;SDS011;66980;44.384;0.512;2023-03-23T09:53:05;4.18;;;2.33;;
77788;SDS011;66980;44.384;0.512;2023-03-23T09:55:38;3.40;;;2.08;;
77788;SDS011;66980;44.384;0.512;2023-03-23T09:58:12;2.35;;;2.03;;
77788;SDS011;66980;44.384;0.512;2023-03-23T10:00:48;3.45;;;2.05;;
77788;SDS011;66980;44.384;0.512;2023-03-23T10:03:21;4.35;;;2.05;;
77788;SDS011;66980;44.384;0.512;2023-03-23T10:05:52;1.88;;;1.73;;
77788;SDS011;66980;44.384;0.512;2023-03-23T10:08:23;2.13;;;1.88;;
77788;SDS011;66980;44.384;0.512;2023-03-23T10:10:59;3.80;;;1.98;;
77788;SDS011;66980;44.384;0.512;2023-03-23T10:13:32;3.17;;;2.10;;
77788;SDS011;66980;44.384;0.512;2023-03-23T10:16:01;4.47;;;1.58;;
77788;SDS011;66980;44.384;0.512;2023-03-23T10:18:41;2.10;;;1.77;;
77788;SDS011;66980;44.384;0.512;2023-03-23T10:21:19;4.60;;;1.98;;
77788;SDS011;66980;44.384;0.512;2023-03-23T10:23:56;2.30;;;2.10;;
77788;SDS011;66980;44.384;0.512;2023-03-23T10:29:01;3.33;;;2.08;;
77788;SDS011;66980;44.384;0.512;2023-03-23T10:31:58;6.20;;;1.73;;
77788;SDS011;66980;44.384;0.512;2023-03-23T10:36:56;2.20;;;1.90;;
77788;SDS011;66980;44.384;0.512;2023-03-23T10:39:40;4.13;;;2.72;;
77788;SDS011;66980;44.384;0.512;2023-03-23T10:44:36;3.03;;;2.45;;
77788;SDS011;66980;44.384;0.512;2023-03-23T10:47:06;5.43;;;2.13;;
77788;SDS011;66980;44.384;0.512;2023-03-23T10:49:44;3.58;;;2.50;;
77788;SDS011;66980;44.384;0.512;2023-03-23T10:55:16;5.78;;;2.92;;
77788;SDS011;66980;44.384;0.512;2023-03-23T10:57:44;2.72;;;2.33;;
77788;SDS011;66980;44.384;0.512;2023-03-23T11:02:56;4.72;;;2.55;;
77788;SDS011;66980;44.384;0.512;2023-03-23T11:05:26;4.53;;;2.63;;
77788;SDS011;66980;44.384;0.512;2023-03-23T11:07:57;3.10;;;2.83;;
77788;SDS011;66980;44.384;0.512;2023-03-23T11:10:27;2.92;;;2.47;;
77788;SDS011;66980;44.384;0.512;2023-03-23T11:13:01;8.75;;;2.92;;
77788;SDS011;66980;44.384;0.512;2023-03-23T11:15:33;5.28;;;2.97;;
77788;SDS011;66980;44.384;0.512;2023-03-23T11:18:04;2.85;;;2.35;;
77788;SDS011;66980;44.384;0.512;2023-03-23T11:21:14;3.58;;;1.77;;
77788;SDS011;66980;44.384;0.512;2023-03-23T11:23:23;2.78;;;2.00;;
77788;SDS011;66980;44.384;0.512;2023-03-23T11:26:08;2.45;;;2.25;;
77788;SDS011;66980;44.384;0.512;2023-03-23T11:31:49;2.42;;;1.80;;
77788;SDS011;66980;44.384;0.512;2023-03-23T11:34:19;4.60;;;2.40;;
77788;SDS011;66980;44.384;0.512;2023-03-23T11:39:21;2.92;;;2.63;;
77788;SDS011;66980;44.384;0.512;2023-03-23T11:41:50;3.80;;;1.98;;
77788;SDS011;66980;44.384;0.512;2023-03-23T11:44:16;3.30;;;2.05;;
77788;SDS011;66980;44.384;0.512;2023-03-23T11:46:45;3.75;;;2.22;;
77788;SDS011;66980;44.384;0.512;2023-03-23T11:49:24;2.30;;;2.13;;
77788;SDS011;66980;44.384;0.512;2023-03-23T11:51:58;3.20;;;1.92;;
77788;SDS011;66980;44.384;0.512;2023-03-23T11:54:37;3.45;;;1.92;;
77788;SDS011;66980;44.384;0.512;2023-03-23T11:57:06;2.55;;;2.05;;
77788;SDS011;66980;44.384;0.512;2023-03-23T11:59:38;3.83;;;2.10;;
77788;SDS011;66980;44.384;0.512;2023-03-23T12:07:56;7.68;;;1.95;;
77788;SDS011;66980;44.384;0.512;2023-03-23T12:10:46;2.08;;;1.52;;
77788;SDS011;66980;44.384;0.512;2023-03-23T12:13:42;2.42;;;2.22;;
77788;SDS011;66980;44.384;0.512;2023-03-23T12:19:09;3.80;;;1.90;;
77788;SDS011;66980;44.384;0.512;2023-03-23T12:29:57;2.72;;;1.75;;
77788;SDS011;66980;44.384;0.512;2023-03-23T12:43:27;5.85;;;2.10;;
77788;SDS011;66980;44.384;0.512;2023-03-23T12:48:38;2.08;;;1.88;;
77788;SDS011;66980;44.384;0.512;2023-03-23T12:53:43;1.45;;;1.35;;
77788;SDS011;66980;44.384;0.512;2023-03-23T12:56:24;2.15;;;1.95;;
77788;SDS011;66980;44.384;0.512;2023-03-23T12:59:00;4.63;;;1.63;;
77788;SDS011;66980;44.384;0.512;2023-03-23T13:01:45;3.50;;;2.17;;
77788;SDS011;66980;44.384;0.512;2023-03-23T13:07:14;1.83;;;1.67;;
77788;SDS011;66980;44.384;0.512;2023-03-23T13:09:46;3.20;;;2.00;;
77788;SDS011;66980;44.384;0.512;2023-03-23T13:12:38;2.35;;;1.95;;
77788;SDS011;66980;44.384;0.512;2023-03-23T13:20:52;2.47;;;1.42;;
77788;SDS011;66980;44.384;0.512;2023-03-23T13:26:09;2.40;;;1.80;;
77788;SDS011;66980;44.384;0.512;2023-03-23T13:29:00;3.83;;;1.25;;
77788;SDS011;66980;44.384;0.512;2023-03-23T13:31:37;1.85;;;1.55;;
77788;SDS011;66980;44.384;0.512;2023-03-23T13:36:35;3.70;;;1.70;;
77788;SDS011;66980;44.384;0.512;2023-03-23T13:39:04;3.42;;;1.65;;
77788;SDS011;66980;44.384;0.512;2023-03-23T13:44:38;2.30;;;1.33;;
77788;SDS011;66980;44.384;0.512;2023-03-23T13:47:16;1.70;;;1.58;;
77788;SDS011;66980;44.384;0.512;2023-03-23T13:49:53;1.70;;;1.58;;
77788;SDS011;66980;44.384;0.512;2023-03-23T13:52:35;2.40;;;2.20;;
77788;SDS011;66980;44.384;0.512;2023-03-23T14:03:11;2.22;;;2.03;;
77788;SDS011;66980;44.384;0.512;2023-03-23T14:08:41;2.65;;;2.08;;
77788;SDS011;66980;44.384;0.512;2023-03-23T14:11:10;2.78;;;2.25;;
77788;SDS011;66980;44.384;0.512;2023-03-23T14:13:42;2.08;;;1.95;;
77788;SDS011;66980;44.384;0.512;2023-03-23T14:16:22;2.10;;;1.80;;
77788;SDS011;66980;44.384;0.512;2023-03-23T14:18:56;1.50;;;1.40;;
77788;SDS011;66980;44.384;0.512;2023-03-23T14:21:42;2.90;;;2.08;;
77788;SDS011;66980;44.384;0.512;2023-03-23T14:24:16;2.20;;;1.98;;
77788;SDS011;66980;44.384;0.512;2023-03-23T14:26:50;2.15;;;1.90;;
77788;SDS011;66980;44.384;0.512;2023-03-23T14:29:17;5.50;;;1.80;;
77788;SDS011;66980;44.384;0.512;2023-03-23T14:31:44;4.25;;;1.73;;
77788;SDS011;66980;44.384;0.512;2023-03-23T14:34:14;3.13;;;2.15;;
77788;SDS011;66980;44.384;0.512;2023-03-23T14:36:43;2.85;;;2.20;;
77788;SDS011;66980;44.384;0.512;2023-03-23T14:39:25;3.50;;;1.52;;
77788;SDS011;66980;44.384;0.512;2023-03-23T14:41:56;2.25;;;2.05;;
77788;SDS011;66980;44.384;0.512;2023-03-23T14:44:35;2.08;;;1.88;;
77788;SDS011;66980;44.384;0.512;2023-03-23T14:47:06;2.13;;;1.52;;
77788;SDS011;66980;44.384;0.512;2023-03-23T14:49:38;1.98;;;1.60;;
77788;SDS011;66980;44.384;0.512;2023-03-23T14:54:37;2.15;;;2.05;;
77788;SDS011;66980;44.384;0.512;2023-03-23T14:57:16;1.65;;;1.55;;
77788;SDS011;66980;44.384;0.512;2023-03-23T14:59:45;2.90;;;1.40;;
77788;SDS011;66980;44.384;0.512;2023-03-23T15:02:26;1.80;;;1.70;;
77788;SDS011;66980;44.384;0.512;2023-03-23T15:05:06;2.20;;;2.00;;
77788;SDS011;66980;44.384;0.512;2023-03-23T15:07:40;3.22;;;2.28;;
77788;SDS011;66980;44.384;0.512;2023-03-23T15:10:09;3.17;;;1.60;;
77788;SDS011;66980;44.384;0.512;2023-03-23T15:12:42;3.83;;;1.70;;
77788;SDS011;66980;44.384;0.512;2023-03-23T15:15:52;2.30;;;1.65;;
77788;SDS011;66980;44.384;0.512;2023-03-23T15:18:00;2.55;;;2.08;;
77788;SDS011;66980;44.384;0.512;2023-03-23T15:20:28;1.58;;;1.45;;
77788;SDS011;66980;44.384;0.512;2023-03-23T15:23:08;2.25;;;1.98;;
77788;SDS011;66980;44.384;0.512;2023-03-23T15:25:47;2.75;;;2.08;;
77788;SDS011;66980;44.384;0.512;2023-03-23T15:28:19;3.58;;;1.88;;
77788;SDS011;66980;44.384;0.512;2023-03-23T15:30:51;2.28;;;1.70;;
77788;SDS011;66980;44.384;0.512;2023-03-23T15:33:18;1.88;;;1.77;;
77788;SDS011;66980;44.384;0.512;2023-03-23T15:35:51;2.10;;;1.50;;
77788;SDS011;66980;44.384;0.512;2023-03-23T15:40:50;2.15;;;1.80;;
77788;SDS011;66980;44.384;0.512;2023-03-23T15:43:19;1.98;;;1.83;;
77788;SDS011;66980;44.384;0.512;2023-03-23T15:45:56;2.08;;;1.98;;
77788;SDS011;66980;44.384;0.512;2023-03-23T15:48:28;5.30;;;1.88;;
77788;SDS011;66980;44.384;0.512;2023-03-23T15:50:55;1.85;;;1.73;;
77788;SDS011;66980;44.384;0.512;2023-03-23T15:56:06;2.63;;;2.00;;
77788;SDS011;66980;44.384;0.512;2023-03-23T15:58:33;2.47;;;1.73;;
77788;SDS011;66980;44.384;0.512;2023-03-23T16:01:02;1.90;;;1.80;;
77788;SDS011;66980;44.384;0.512;2023-03-23T16:03:42;2.25;;;1.65;;
77788;SDS011;66980;44.384;0.512;2023-03-23T16:06:13;1.55;;;1.45;;
77788;SDS011;66980;44.384;0.512;2023-03-23T16:08:40;1.92;;;1.75;;
77788;SDS011;66980;44.384;0.512;2023-03-23T16:11:06;1.85;;;1.75;;
77788;SDS011;66980;44.384;0.512;2023-03-23T16:13:34;2.08;;;1.60;;
77788;SDS011;66980;44.384;0.512;2023-03-23T16:16:00;2.58;;;1.80;;
77788;SDS011;66980;44.384;0.512;2023-03-23T16:18:27;3.00;;;1.73;;
77788;SDS011;66980;44.384;0.512;2023-03-23T16:20:52;3.40;;;1.48;;
77788;SDS011;66980;44.384;0.512;2023-03-23T16:23:18;2.42;;;1.70;;
77788;SDS011;66980;44.384;0.512;2023-03-23T16:25:44;3.75;;;1.90;;
77788;SDS011;66980;44.384;0.512;2023-03-23T16:28:12;2.00;;;1.48;;
77788;SDS011;66980;44.384;0.512;2023-03-23T16:30:39;2.58;;;1.70;;
77788;SDS011;66980;44.384;0.512;2023-03-23T16:33:06;2.33;;;1.63;;
77788;SDS011;66980;44.384;0.512;2023-03-23T16:35:32;2.75;;;2.08;;
77788;SDS011;66980;44.384;0.512;2023-03-23T16:37:58;1.88;;;1.77;;
77788;SDS011;66980;44.384;0.512;2023-03-23T16:40:23;2.47;;;1.75;;
77788;SDS011;66980;44.384;0.512;2023-03-23T16:42:49;1.90;;;1.80;;
77788;SDS011;66980;44.384;0.512;2023-03-23T16:45:15;4.22;;;1.65;;
77788;SDS011;66980;44.384;0.512;2023-03-23T16:47:42;3.45;;;2.60;;
77788;SDS011;66980;44.384;0.512;2023-03-23T16:50:09;2.65;;;2.00;;
77788;SDS011;66980;44.384;0.512;2023-03-23T16:52:37;9.98;;;3.80;;
77788;SDS011;66980;44.384;0.512;2023-03-23T16:55:04;16.85;;;8.18;;
77788;SDS011;66980;44.384;0.512;2023-03-23T16:57:31;13.65;;;7.13;;
77788;SDS011;66980;44.384;0.512;2023-03-23T16:59:59;9.40;;;5.10;;
77788;SDS011;66980;44.384;0.512;2023-03-23T17:02:24;13.15;;;7.40;;
77788;SDS011;66980;44.384;0.512;2023-03-23T17:04:50;12.32;;;5.05;;
77788;SDS011;66980;44.384;0.512;2023-03-23T17:07:16;7.40;;;4.88;;
77788;SDS011;66980;44.384;0.512;2023-03-23T17:09:42;6.40;;;5.03;;
77788;SDS011;66980;44.384;0.512;2023-03-23T17:12:10;6.35;;;4.10;;